UAL513 KLAS-KSFO
Flight info
| Callsign | UAL513 |
|---|---|
| Flight time | 1h 5m |
| Altitude | 30000 |
| Route | JOHKR5 KENNO RUSME DYAMD5 |
| Aircraft | A320/M-SDE3FGHIRWY/LB1 |
Departure
| Time | 2026-05-03 21:44 |
|---|---|
| Airport | Harry Reid International Airport (KLAS) |
Arrival
| Time | 2026-05-03 22:49 |
|---|---|
| Airport | San Francisco International Airport (KSFO) |
| Time | Latitude | Longitude | Altitude | Speed | Heading |
|---|---|---|---|---|---|
| 2026-05-03 21:04 | 36.08532 | -115.13622 | 2075 ft | 0 kts | 0° |
| 2026-05-03 21:05 | 36.08531 | -115.13622 | 2075 ft | 0 kts | 0° |
| 2026-05-03 21:18 | 36.08530 | -115.13622 | 2075 ft | 0 kts | 0° |
| 2026-05-03 21:31 | 36.08529 | -115.13622 | 2075 ft | 0 kts | 0° |
| 2026-05-03 21:33 | 36.08506 | -115.13622 | 2074 ft | 4 kts | 359° |
| 2026-05-03 21:33 | 36.08480 | -115.13625 | 2073 ft | 4 kts | 31° |
| 2026-05-03 21:33 | 36.08466 | -115.13647 | 2075 ft | 3 kts | 88° |
| 2026-05-03 21:34 | 36.08466 | -115.13650 | 2075 ft | 3 kts | 90° |
| 2026-05-03 21:37 | 36.08466 | -115.13646 | 2075 ft | 2 kts | 90° |
| 2026-05-03 21:37 | 36.08466 | -115.13634 | 2072 ft | 3 kts | 90° |
| 2026-05-03 21:38 | 36.08465 | -115.13590 | 2073 ft | 7 kts | 91° |
| 2026-05-03 21:38 | 36.08464 | -115.13513 | 2073 ft | 11 kts | 91° |
| 2026-05-03 21:38 | 36.08434 | -115.13419 | 2072 ft | 13 kts | 133° |
| 2026-05-03 21:38 | 36.08351 | -115.13378 | 2073 ft | 13 kts | 182° |
| 2026-05-03 21:39 | 36.08262 | -115.13379 | 2073 ft | 13 kts | 180° |
| 2026-05-03 21:39 | 36.08174 | -115.13379 | 2075 ft | 13 kts | 178° |
| 2026-05-03 21:39 | 36.08084 | -115.13375 | 2078 ft | 13 kts | 179° |
| 2026-05-03 21:39 | 36.07988 | -115.13376 | 2077 ft | 14 kts | 181° |
| 2026-05-03 21:40 | 36.07891 | -115.13379 | 2081 ft | 14 kts | 180° |
| 2026-05-03 21:40 | 36.07827 | -115.13306 | 2074 ft | 17 kts | 97° |
| 2026-05-03 21:40 | 36.07831 | -115.13124 | 2066 ft | 25 kts | 88° |
| 2026-05-03 21:40 | 36.07824 | -115.12886 | 2056 ft | 30 kts | 94° |
| 2026-05-03 21:41 | 36.07826 | -115.12649 | 2042 ft | 17 kts | 85° |
| 2026-05-03 21:41 | 36.07828 | -115.12485 | 2042 ft | 21 kts | 90° |
| 2026-05-03 21:41 | 36.07824 | -115.12308 | 2033 ft | 17 kts | 90° |
| 2026-05-03 21:41 | 36.07762 | -115.12172 | 2028 ft | 21 kts | 131° |
| 2026-05-03 21:42 | 36.07688 | -115.12125 | 2033 ft | 11 kts | 175° |
| 2026-05-03 21:42 | 36.07647 | -115.12166 | 2030 ft | 8 kts | 249° |
| 2026-05-03 21:42 | 36.07643 | -115.12200 | 2031 ft | 0 kts | 268° |
| 2026-05-03 21:42 | 36.07643 | -115.12225 | 2032 ft | 21 kts | 269° |
| 2026-05-03 21:43 | 36.07640 | -115.12701 | 2055 ft | 86 kts | 271° |
| 2026-05-03 21:43 | 36.07642 | -115.13659 | 2092 ft | 134 kts | 270° |
| 2026-05-03 21:43 | 36.07636 | -115.14988 | 2146 ft | 173 kts | 269° |
| 2026-05-03 21:43 | 36.07677 | -115.16499 | 2744 ft | 173 kts | 264° |
| 2026-05-03 21:44 | 36.07695 | -115.17968 | 3476 ft | 170 kts | 266° |
| 2026-05-03 21:44 | 36.07689 | -115.19406 | 4039 ft | 171 kts | 262° |
| 2026-05-03 21:44 | 36.07634 | -115.20940 | 4250 ft | 187 kts | 252° |
| 2026-05-03 21:44 | 36.07361 | -115.22599 | 4447 ft | 209 kts | 252° |
| 2026-05-03 21:45 | 36.07015 | -115.24441 | 4647 ft | 229 kts | 241° |
| 2026-05-03 21:45 | 36.06082 | -115.26039 | 5104 ft | 235 kts | 216° |
| 2026-05-03 21:45 | 36.04570 | -115.26926 | 5516 ft | 249 kts | 194° |
| 2026-05-03 21:45 | 36.02891 | -115.27572 | 6227 ft | 255 kts | 198° |
| 2026-05-03 21:46 | 36.01215 | -115.28338 | 7036 ft | 259 kts | 199° |
| 2026-05-03 21:46 | 35.99528 | -115.29150 | 7909 ft | 261 kts | 200° |
| 2026-05-03 21:46 | 35.97877 | -115.30153 | 8714 ft | 267 kts | 206° |
| 2026-05-03 21:46 | 35.96233 | -115.31245 | 9589 ft | 269 kts | 206° |
| 2026-05-03 21:47 | 35.94579 | -115.32362 | 10374 ft | 273 kts | 206° |
| 2026-05-03 21:47 | 35.92905 | -115.33486 | 11167 ft | 275 kts | 206° |
| 2026-05-03 21:47 | 35.91218 | -115.34626 | 11946 ft | 278 kts | 209° |
| 2026-05-03 21:47 | 35.89744 | -115.36201 | 12676 ft | 286 kts | 228° |
| 2026-05-03 21:48 | 35.88786 | -115.38388 | 13372 ft | 297 kts | 249° |
| 2026-05-03 21:48 | 35.88532 | -115.40959 | 14070 ft | 308 kts | 266° |
| 2026-05-03 21:48 | 35.88590 | -115.43607 | 14765 ft | 310 kts | 266° |
| 2026-05-03 21:48 | 35.88653 | -115.46279 | 15437 ft | 313 kts | 267° |
| 2026-05-03 21:49 | 35.88713 | -115.48971 | 16117 ft | 315 kts | 266° |
| 2026-05-03 21:49 | 35.88771 | -115.51685 | 16801 ft | 318 kts | 267° |
| 2026-05-03 21:49 | 35.88829 | -115.54419 | 17498 ft | 320 kts | 267° |
| 2026-05-03 21:49 | 35.88884 | -115.57178 | 18056 ft | 328 kts | 267° |
| 2026-05-03 21:50 | 35.88937 | -115.60078 | 18175 ft | 348 kts | 267° |
| 2026-05-03 21:50 | 35.88989 | -115.63136 | 18340 ft | 364 kts | 267° |
| 2026-05-03 21:50 | 35.89046 | -115.66294 | 18796 ft | 371 kts | 267° |
| 2026-05-03 21:50 | 35.89109 | -115.69485 | 19398 ft | 373 kts | 268° |
| 2026-05-03 21:51 | 35.89173 | -115.72690 | 20040 ft | 374 kts | 267° |
| 2026-05-03 21:51 | 35.89237 | -115.75905 | 20702 ft | 376 kts | 267° |
| 2026-05-03 21:51 | 35.89300 | -115.79131 | 21348 ft | 376 kts | 267° |
| 2026-05-03 21:51 | 35.89358 | -115.82360 | 21969 ft | 377 kts | 267° |
| 2026-05-03 21:52 | 35.89410 | -115.85599 | 22569 ft | 378 kts | 266° |
| 2026-05-03 21:52 | 35.89493 | -115.88799 | 23152 ft | 381 kts | 271° |
| 2026-05-03 21:52 | 35.90015 | -115.92035 | 23661 ft | 390 kts | 282° |
| 2026-05-03 21:52 | 35.91125 | -115.95118 | 24193 ft | 398 kts | 294° |
| 2026-05-03 21:53 | 35.92802 | -115.97879 | 24724 ft | 408 kts | 306° |
| 2026-05-03 21:53 | 35.94809 | -116.00360 | 25263 ft | 408 kts | 307° |
| 2026-05-03 21:53 | 35.96824 | -116.02826 | 25790 ft | 407 kts | 307° |
| 2026-05-03 21:53 | 35.98830 | -116.05285 | 26235 ft | 406 kts | 306° |
| 2026-05-03 21:54 | 36.00834 | -116.07752 | 26650 ft | 406 kts | 306° |
| 2026-05-03 21:54 | 36.02833 | -116.10220 | 27205 ft | 406 kts | 306° |
| 2026-05-03 21:54 | 36.04823 | -116.12680 | 27745 ft | 405 kts | 305° |
| 2026-05-03 21:54 | 36.06811 | -116.15139 | 28272 ft | 404 kts | 304° |
| 2026-05-03 21:55 | 36.08795 | -116.17600 | 28767 ft | 404 kts | 304° |
| 2026-05-03 21:55 | 36.10775 | -116.20058 | 29239 ft | 404 kts | 304° |
| 2026-05-03 21:55 | 36.12755 | -116.22521 | 29646 ft | 404 kts | 304° |
| 2026-05-03 21:55 | 36.14724 | -116.24966 | 29731 ft | 395 kts | 304° |
| 2026-05-03 21:56 | 36.18535 | -116.29676 | 29739 ft | 383 kts | 303° |
| 2026-05-03 21:56 | 36.22282 | -116.34359 | 29743 ft | 382 kts | 303° |
| 2026-05-03 21:57 | 36.26003 | -116.39021 | 29744 ft | 384 kts | 303° |
| 2026-05-03 21:57 | 36.29786 | -116.43713 | 29744 ft | 386 kts | 304° |
| 2026-05-03 21:58 | 36.33674 | -116.48338 | 29747 ft | 388 kts | 305° |
| 2026-05-03 21:58 | 36.37598 | -116.52945 | 29743 ft | 389 kts | 305° |
| 2026-05-03 21:59 | 36.41498 | -116.57572 | 29733 ft | 389 kts | 306° |
| 2026-05-03 21:59 | 36.45405 | -116.62235 | 29724 ft | 392 kts | 306° |
| 2026-05-03 22:00 | 36.49436 | -116.66857 | 29722 ft | 397 kts | 308° |
| 2026-05-03 22:00 | 36.53540 | -116.71474 | 29727 ft | 399 kts | 308° |
| 2026-05-03 22:01 | 36.57655 | -116.76122 | 29726 ft | 400 kts | 308° |
| 2026-05-03 22:01 | 36.61772 | -116.80804 | 29727 ft | 402 kts | 308° |
| 2026-05-03 22:02 | 36.65898 | -116.85523 | 29728 ft | 404 kts | 309° |
| 2026-05-03 22:02 | 36.70020 | -116.90245 | 29731 ft | 406 kts | 309° |
| 2026-05-03 22:03 | 36.74381 | -116.94802 | 29731 ft | 418 kts | 319° |
| 2026-05-03 22:03 | 36.79574 | -116.98266 | 29738 ft | 425 kts | 325° |
| 2026-05-03 22:04 | 36.84840 | -117.01667 | 29769 ft | 431 kts | 325° |
| 2026-05-03 22:04 | 36.87536 | -117.03421 | 29774 ft | 442 kts | 325° |
| 2026-05-03 22:04 | 36.90296 | -117.05221 | 29769 ft | 453 kts | 326° |
| 2026-05-03 22:05 | 36.96002 | -117.08935 | 29790 ft | 471 kts | 327° |
| 2026-05-03 22:05 | 37.01898 | -117.12757 | 29784 ft | 481 kts | 327° |
| 2026-05-03 22:06 | 37.07852 | -117.16631 | 29800 ft | 483 kts | 328° |
| 2026-05-03 22:06 | 37.13814 | -117.20523 | 29806 ft | 484 kts | 328° |
| 2026-05-03 22:07 | 37.19780 | -117.24435 | 29814 ft | 484 kts | 328° |
| 2026-05-03 22:07 | 37.25737 | -117.28343 | 29820 ft | 483 kts | 329° |
| 2026-05-03 22:08 | 37.31429 | -117.32729 | 29829 ft | 477 kts | 316° |
| 2026-05-03 22:08 | 37.36454 | -117.38099 | 29830 ft | 477 kts | 316° |
| 2026-05-03 22:09 | 37.41512 | -117.43517 | 29823 ft | 478 kts | 316° |
| 2026-05-03 22:10 | 37.48187 | -117.52612 | 29811 ft | 469 kts | 295° |
| 2026-05-03 22:10 | 37.49437 | -117.56367 | 29813 ft | 464 kts | 284° |
| 2026-05-03 22:10 | 37.50103 | -117.60322 | 29808 ft | 461 kts | 274° |
| 2026-05-03 22:11 | 37.50758 | -117.68358 | 29807 ft | 461 kts | 273° |
| 2026-05-03 22:11 | 37.51422 | -117.76397 | 29806 ft | 462 kts | 274° |
| 2026-05-03 22:12 | 37.52082 | -117.84440 | 29805 ft | 462 kts | 274° |
| 2026-05-03 22:12 | 37.52730 | -117.92513 | 29801 ft | 464 kts | 274° |
| 2026-05-03 22:13 | 37.53371 | -118.00608 | 29813 ft | 465 kts | 274° |
| 2026-05-03 22:13 | 37.54013 | -118.08718 | 29814 ft | 466 kts | 274° |
| 2026-05-03 22:14 | 37.54655 | -118.16854 | 29824 ft | 466 kts | 274° |
| 2026-05-03 22:14 | 37.55285 | -118.24993 | 29826 ft | 467 kts | 274° |
| 2026-05-03 22:15 | 37.55914 | -118.33152 | 29835 ft | 468 kts | 274° |
| 2026-05-03 22:15 | 37.56535 | -118.41312 | 29826 ft | 468 kts | 274° |
| 2026-05-03 22:16 | 37.57148 | -118.49484 | 29832 ft | 469 kts | 274° |
| 2026-05-03 22:16 | 37.57757 | -118.57676 | 29951 ft | 470 kts | 274° |
| 2026-05-03 22:17 | 37.58261 | -118.64501 | 29992 ft | 471 kts | 273° |
| 2026-05-03 22:17 | 37.58872 | -118.72737 | 30028 ft | 472 kts | 274° |
| 2026-05-03 22:18 | 37.59472 | -118.80991 | 30034 ft | 473 kts | 273° |
| 2026-05-03 22:18 | 37.60066 | -118.89275 | 30029 ft | 475 kts | 273° |
| 2026-05-03 22:19 | 37.60659 | -118.97597 | 30023 ft | 478 kts | 273° |
| 2026-05-03 22:19 | 37.61248 | -119.05966 | 29991 ft | 480 kts | 273° |
| 2026-05-03 22:20 | 37.61832 | -119.14328 | 29975 ft | 483 kts | 273° |
| 2026-05-03 22:20 | 37.62413 | -119.22788 | 29951 ft | 485 kts | 272° |
| 2026-05-03 22:21 | 37.62998 | -119.31297 | 29942 ft | 487 kts | 273° |
| 2026-05-03 22:21 | 37.63579 | -119.39821 | 29933 ft | 489 kts | 273° |
| 2026-05-03 22:22 | 37.64149 | -119.48371 | 29942 ft | 490 kts | 273° |
| 2026-05-03 22:22 | 37.64722 | -119.56952 | 29942 ft | 491 kts | 273° |
| 2026-05-03 22:23 | 37.65292 | -119.65545 | 29944 ft | 492 kts | 273° |
| 2026-05-03 22:23 | 37.65842 | -119.74166 | 29934 ft | 494 kts | 273° |
| 2026-05-03 22:24 | 37.66395 | -119.82807 | 29949 ft | 494 kts | 273° |
| 2026-05-03 22:24 | 37.66939 | -119.91441 | 29953 ft | 494 kts | 273° |
| 2026-05-03 22:25 | 37.67479 | -120.00077 | 29959 ft | 493 kts | 273° |
| 2026-05-03 22:25 | 37.68002 | -120.08637 | 29947 ft | 492 kts | 273° |
| 2026-05-03 22:26 | 37.68536 | -120.17293 | 29955 ft | 492 kts | 273° |
| 2026-05-03 22:26 | 37.68795 | -120.21538 | 29638 ft | 491 kts | 273° |
| 2026-05-03 22:26 | 37.69051 | -120.25839 | 29205 ft | 492 kts | 273° |
| 2026-05-03 22:26 | 37.69308 | -120.30153 | 28576 ft | 493 kts | 273° |
| 2026-05-03 22:27 | 37.69566 | -120.34466 | 27978 ft | 494 kts | 273° |
| 2026-05-03 22:27 | 37.69806 | -120.38800 | 27372 ft | 495 kts | 270° |
| 2026-05-03 22:27 | 37.69611 | -120.43113 | 26823 ft | 492 kts | 260° |
| 2026-05-03 22:27 | 37.69109 | -120.47397 | 26273 ft | 493 kts | 259° |
| 2026-05-03 22:28 | 37.68610 | -120.51677 | 25741 ft | 494 kts | 259° |
| 2026-05-03 22:28 | 37.68118 | -120.55926 | 25264 ft | 481 kts | 259° |
| 2026-05-03 22:28 | 37.67652 | -120.59960 | 25021 ft | 448 kts | 259° |
| 2026-05-03 22:28 | 37.67218 | -120.63725 | 24827 ft | 419 kts | 259° |
| 2026-05-03 22:29 | 37.66801 | -120.67289 | 24313 ft | 404 kts | 259° |
| 2026-05-03 22:29 | 37.66386 | -120.70756 | 23644 ft | 397 kts | 258° |
| 2026-05-03 22:29 | 37.65975 | -120.74172 | 22870 ft | 390 kts | 258° |
| 2026-05-03 22:29 | 37.65581 | -120.77484 | 22476 ft | 373 kts | 258° |
| 2026-05-03 22:30 | 37.65199 | -120.80689 | 22059 ft | 367 kts | 258° |
| 2026-05-03 22:30 | 37.64814 | -120.83864 | 21626 ft | 366 kts | 258° |
| 2026-05-03 22:30 | 37.64417 | -120.87108 | 21177 ft | 380 kts | 258° |
| 2026-05-03 22:30 | 37.64009 | -120.90419 | 20712 ft | 382 kts | 258° |
| 2026-05-03 22:31 | 37.63605 | -120.93728 | 20241 ft | 380 kts | 258° |
| 2026-05-03 22:31 | 37.63208 | -120.97016 | 19870 ft | 378 kts | 258° |
| 2026-05-03 22:31 | 37.62793 | -121.00313 | 19286 ft | 382 kts | 257° |
| 2026-05-03 22:31 | 37.62355 | -121.03605 | 18809 ft | 380 kts | 257° |
| 2026-05-03 22:32 | 37.61907 | -121.06882 | 18344 ft | 378 kts | 257° |
| 2026-05-03 22:32 | 37.61462 | -121.10132 | 17813 ft | 376 kts | 257° |
| 2026-05-03 22:32 | 37.61023 | -121.13366 | 17333 ft | 372 kts | 257° |
| 2026-05-03 22:32 | 37.60593 | -121.16568 | 16857 ft | 368 kts | 257° |
| 2026-05-03 22:33 | 37.60166 | -121.19735 | 16390 ft | 365 kts | 257° |
| 2026-05-03 22:33 | 37.59742 | -121.22871 | 15926 ft | 362 kts | 257° |
| 2026-05-03 22:33 | 37.59320 | -121.25984 | 15463 ft | 359 kts | 257° |
| 2026-05-03 22:33 | 37.58916 | -121.29076 | 14996 ft | 356 kts | 258° |
| 2026-05-03 22:34 | 37.58551 | -121.32157 | 14535 ft | 354 kts | 258° |
| 2026-05-03 22:34 | 37.58217 | -121.35178 | 14082 ft | 352 kts | 259° |
| 2026-05-03 22:34 | 37.57883 | -121.38261 | 13600 ft | 350 kts | 259° |
| 2026-05-03 22:34 | 37.57552 | -121.41245 | 13127 ft | 346 kts | 259° |
| 2026-05-03 22:35 | 37.57212 | -121.44242 | 12666 ft | 344 kts | 258° |
| 2026-05-03 22:35 | 37.56869 | -121.47210 | 12223 ft | 341 kts | 258° |
| 2026-05-03 22:35 | 37.56526 | -121.50164 | 11752 ft | 339 kts | 258° |
| 2026-05-03 22:35 | 37.56183 | -121.53101 | 11353 ft | 337 kts | 258° |
| 2026-05-03 22:36 | 37.55847 | -121.55979 | 11258 ft | 326 kts | 258° |
| 2026-05-03 22:36 | 37.55523 | -121.58755 | 11127 ft | 315 kts | 258° |
| 2026-05-03 22:36 | 37.55207 | -121.61440 | 10997 ft | 305 kts | 257° |
| 2026-05-03 22:36 | 37.54724 | -121.64003 | 10722 ft | 301 kts | 249° |
| 2026-05-03 22:37 | 37.54112 | -121.66564 | 10293 ft | 304 kts | 249° |
| 2026-05-03 22:37 | 37.53515 | -121.69063 | 10132 ft | 289 kts | 249° |
| 2026-05-03 22:37 | 37.52959 | -121.71414 | 9913 ft | 272 kts | 249° |
| 2026-05-03 22:37 | 37.52422 | -121.73669 | 9510 ft | 265 kts | 249° |
| 2026-05-03 22:38 | 37.51896 | -121.75864 | 8991 ft | 260 kts | 249° |
| 2026-05-03 22:38 | 37.51371 | -121.78041 | 8464 ft | 260 kts | 249° |
| 2026-05-03 22:38 | 37.50847 | -121.80205 | 8224 ft | 259 kts | 249° |
| 2026-05-03 22:38 | 37.50321 | -121.82369 | 7891 ft | 253 kts | 249° |
| 2026-05-03 22:39 | 37.49818 | -121.84456 | 7560 ft | 249 kts | 249° |
| 2026-05-03 22:39 | 37.49372 | -121.86565 | 7164 ft | 249 kts | 258° |
| 2026-05-03 22:39 | 37.49298 | -121.88746 | 6814 ft | 253 kts | 273° |
| 2026-05-03 22:39 | 37.49590 | -121.90927 | 6509 ft | 249 kts | 280° |
| 2026-05-03 22:40 | 37.49908 | -121.92973 | 6378 ft | 233 kts | 279° |
| 2026-05-03 22:40 | 37.50211 | -121.94932 | 6212 ft | 218 kts | 278° |
| 2026-05-03 22:40 | 37.50491 | -121.96758 | 5816 ft | 214 kts | 278° |
| 2026-05-03 22:40 | 37.50768 | -121.98582 | 5383 ft | 210 kts | 277° |
| 2026-05-03 22:41 | 37.51039 | -122.00360 | 4880 ft | 204 kts | 276° |
| 2026-05-03 22:41 | 37.51304 | -122.02096 | 4415 ft | 199 kts | 277° |
| 2026-05-03 22:41 | 37.51562 | -122.03798 | 4075 ft | 196 kts | 278° |
| 2026-05-03 22:41 | 37.51813 | -122.05470 | 3774 ft | 193 kts | 277° |
| 2026-05-03 22:42 | 37.52061 | -122.07115 | 3518 ft | 188 kts | 277° |
| 2026-05-03 22:42 | 37.52303 | -122.08733 | 3474 ft | 189 kts | 276° |
| 2026-05-03 22:42 | 37.52547 | -122.10364 | 3408 ft | 189 kts | 277° |
| 2026-05-03 22:42 | 37.52793 | -122.11987 | 3329 ft | 188 kts | 277° |
| 2026-05-03 22:43 | 37.53039 | -122.13607 | 3250 ft | 188 kts | 277° |
| 2026-05-03 22:43 | 37.53273 | -122.15127 | 3154 ft | 165 kts | 276° |
| 2026-05-03 22:43 | 37.53480 | -122.16456 | 3074 ft | 148 kts | 278° |
| 2026-05-03 22:43 | 37.53838 | -122.17645 | 3023 ft | 144 kts | 289° |
| 2026-05-03 22:44 | 37.54265 | -122.18777 | 2981 ft | 142 kts | 290° |
| 2026-05-03 22:44 | 37.54703 | -122.19868 | 2853 ft | 138 kts | 292° |
| 2026-05-03 22:44 | 37.55146 | -122.20938 | 2693 ft | 137 kts | 292° |
| 2026-05-03 22:44 | 37.55581 | -122.21996 | 2516 ft | 136 kts | 292° |
| 2026-05-03 22:45 | 37.56023 | -122.23042 | 2298 ft | 135 kts | 294° |
| 2026-05-03 22:45 | 37.56456 | -122.24082 | 2124 ft | 133 kts | 292° |
| 2026-05-03 22:45 | 37.56889 | -122.25102 | 2011 ft | 134 kts | 295° |
| 2026-05-03 22:45 | 37.57327 | -122.26133 | 1824 ft | 132 kts | 296° |
| 2026-05-03 22:46 | 37.57754 | -122.27143 | 1652 ft | 130 kts | 296° |
| 2026-05-03 22:46 | 37.58175 | -122.28155 | 1415 ft | 130 kts | 296° |
| 2026-05-03 22:46 | 37.58596 | -122.29158 | 1177 ft | 128 kts | 296° |
| 2026-05-03 22:46 | 37.59020 | -122.30156 | 1059 ft | 130 kts | 296° |
| 2026-05-03 22:47 | 37.59448 | -122.31168 | 852 ft | 132 kts | 294° |
| 2026-05-03 22:47 | 37.59882 | -122.32194 | 663 ft | 133 kts | 293° |
| 2026-05-03 22:47 | 37.60313 | -122.33233 | 474 ft | 134 kts | 294° |
| 2026-05-03 22:47 | 37.60753 | -122.34283 | 312 ft | 136 kts | 295° |
| 2026-05-03 22:48 | 37.61196 | -122.35338 | 138 ft | 136 kts | 295° |
| 2026-05-03 22:48 | 37.61634 | -122.36385 | 31 ft | 127 kts | 294° |
| 2026-05-03 22:48 | 37.61987 | -122.37231 | 24 ft | 86 kts | 299° |
| 2026-05-03 22:48 | 37.62195 | -122.37723 | 23 ft | 50 kts | 298° |
| 2026-05-03 22:49 | 37.62351 | -122.38096 | 22 ft | 33 kts | 298° |
| 2026-05-03 22:49 | 37.62457 | -122.38340 | 22 ft | 23 kts | 298° |
| 2026-05-03 22:49 | 37.62454 | -122.38453 | 24 ft | 14 kts | 211° |
| 2026-05-03 22:49 | 37.62401 | -122.38490 | 22 ft | 0 kts | 207° |
| 2026-05-03 22:50 | 37.62399 | -122.38492 | 22 ft | 2 kts | 207° |
| 2026-05-03 22:50 | 37.62378 | -122.38506 | 23 ft | 5 kts | 208° |
| 2026-05-03 22:50 | 37.62334 | -122.38535 | 22 ft | 9 kts | 207° |
| 2026-05-03 22:51 | 37.62270 | -122.38577 | 22 ft | 12 kts | 207° |
| 2026-05-03 22:51 | 37.62191 | -122.38629 | 24 ft | 12 kts | 207° |
| 2026-05-03 22:51 | 37.62177 | -122.38708 | 22 ft | 12 kts | 296° |
| 2026-05-03 22:51 | 37.62221 | -122.38811 | 23 ft | 15 kts | 297° |
| 2026-05-03 22:52 | 37.62265 | -122.38942 | 22 ft | 18 kts | 269° |
| 2026-05-03 22:52 | 37.62238 | -122.39056 | 22 ft | 7 kts | 252° |
| 2026-05-03 22:52 | 37.62210 | -122.39118 | 24 ft | 10 kts | 219° |
| 2026-05-03 22:52 | 37.62140 | -122.39165 | 22 ft | 13 kts | 207° |
| 2026-05-03 22:53 | 37.62079 | -122.39205 | 24 ft | 3 kts | 207° |
| 2026-05-03 22:53 | 37.62053 | -122.39213 | 25 ft | 5 kts | 178° |
| 2026-05-03 22:53 | 37.62026 | -122.39183 | 23 ft | 6 kts | 125° |
| 2026-05-03 22:53 | 37.62003 | -122.39132 | 24 ft | 7 kts | 118° |
| 2026-05-03 22:54 | 37.61984 | -122.39085 | 23 ft | 4 kts | 117° |
| 2026-05-03 22:54 | 37.61970 | -122.39047 | 22 ft | 5 kts | 115° |
| 2026-05-03 22:54 | 37.61954 | -122.39006 | 22 ft | 0 kts | 117° |
| 2026-05-03 22:54 | 37.61952 | -122.39002 | 24 ft | 1 kts | 116° |
| 2026-05-03 22:55 | 37.61953 | -122.38997 | 22 ft | 1 kts | 85° |
| 2026-05-03 22:55 | 37.61958 | -122.38986 | 22 ft | 2 kts | 58° |
| 2026-05-03 22:55 | 37.61976 | -122.38972 | 23 ft | 4 kts | 28° |
| 2026-05-03 22:55 | 37.61998 | -122.38958 | 22 ft | 2 kts | 27° |
| 2026-05-03 22:56 | 37.62003 | -122.38954 | 22 ft | 1 kts | 27° |
| 2026-05-03 22:56 | 37.62017 | -122.38945 | 22 ft | 3 kts | 27° |
| 2026-05-03 22:56 | 37.62023 | -122.38942 | 22 ft | 0 kts | 27° |
| 2026-05-03 22:56 | 37.62024 | -122.38941 | 22 ft | 0 kts | 27° |